HAZ2219 ZSHC-ZGHA
Flight info
| Callsign | HAZ2219 |
|---|---|
| Flight time | 1h 14m |
| Altitude | 27600 |
| Route | ABVIL5E ABVIL G204 OREXA H26 AVDIP W226 DALEP DAL1X |
| Aircraft | A320/M-SDE3FGHIRWY/LB1 |
Departure
| Time | 2026-04-23 12:04 |
|---|---|
| Airport | Hangzhou Xiaoshan International Airport (ZSHC) |
Arrival
| Time | 2026-04-23 13:19 |
|---|---|
| Airport | Changsha Huanghua International Airport (ZGHA) |
| Time | Latitude | Longitude | Altitude | Speed | Heading |
|---|---|---|---|---|---|
| 2026-04-23 11:31 | 30.24121 | 120.42803 | 32 ft | 0 kts | 234° |
| 2026-04-23 11:47 | 30.24125 | 120.42809 | 32 ft | 3 kts | 234° |
| 2026-04-23 11:47 | 30.24137 | 120.42829 | 32 ft | 2 kts | 234° |
| 2026-04-23 11:47 | 30.24146 | 120.42849 | 32 ft | 3 kts | 269° |
| 2026-04-23 11:47 | 30.24141 | 120.42868 | 32 ft | 3 kts | 318° |
| 2026-04-23 11:48 | 30.24124 | 120.42882 | 31 ft | 3 kts | 332° |
| 2026-04-23 11:48 | 30.24119 | 120.42885 | 31 ft | 0 kts | 333° |
| 2026-04-23 11:50 | 30.24121 | 120.42884 | 32 ft | 3 kts | 333° |
| 2026-04-23 11:50 | 30.24211 | 120.42831 | 31 ft | 22 kts | 333° |
| 2026-04-23 11:50 | 30.24302 | 120.42799 | 32 ft | 13 kts | 11° |
| 2026-04-23 11:51 | 30.24378 | 120.42762 | 32 ft | 13 kts | 281° |
| 2026-04-23 11:51 | 30.24334 | 120.42649 | 32 ft | 21 kts | 243° |
| 2026-04-23 11:51 | 30.24252 | 120.42462 | 31 ft | 29 kts | 243° |
| 2026-04-23 11:51 | 30.24163 | 120.42264 | 32 ft | 26 kts | 243° |
| 2026-04-23 11:52 | 30.24132 | 120.42158 | 32 ft | 10 kts | 292° |
| 2026-04-23 11:52 | 30.24176 | 120.42094 | 32 ft | 11 kts | 279° |
| 2026-04-23 11:52 | 30.24153 | 120.42017 | 32 ft | 9 kts | 244° |
| 2026-04-23 11:52 | 30.24121 | 120.41944 | 32 ft | 13 kts | 243° |
| 2026-04-23 11:53 | 30.24078 | 120.41846 | 32 ft | 14 kts | 243° |
| 2026-04-23 11:53 | 30.24036 | 120.41751 | 32 ft | 11 kts | 243° |
| 2026-04-23 11:53 | 30.24003 | 120.41676 | 32 ft | 10 kts | 242° |
| 2026-04-23 11:53 | 30.23973 | 120.41611 | 32 ft | 8 kts | 243° |
| 2026-04-23 11:54 | 30.23960 | 120.41579 | 32 ft | 0 kts | 243° |
| 2026-04-23 11:57 | 30.23951 | 120.41560 | 32 ft | 6 kts | 243° |
| 2026-04-23 11:57 | 30.23935 | 120.41523 | 32 ft | 5 kts | 243° |
| 2026-04-23 11:57 | 30.23922 | 120.41494 | 32 ft | 3 kts | 244° |
| 2026-04-23 11:57 | 30.23909 | 120.41466 | 32 ft | 5 kts | 240° |
| 2026-04-23 11:58 | 30.23892 | 120.41435 | 32 ft | 4 kts | 235° |
| 2026-04-23 11:58 | 30.23877 | 120.41412 | 32 ft | 3 kts | 231° |
| 2026-04-23 11:58 | 30.23865 | 120.41397 | 32 ft | 2 kts | 227° |
| 2026-04-23 11:58 | 30.23853 | 120.41358 | 32 ft | 13 kts | 256° |
| 2026-04-23 11:59 | 30.23801 | 120.41221 | 32 ft | 20 kts | 243° |
| 2026-04-23 11:59 | 30.23735 | 120.41071 | 32 ft | 22 kts | 243° |
| 2026-04-23 11:59 | 30.23683 | 120.40935 | 33 ft | 8 kts | 295° |
| 2026-04-23 11:59 | 30.23717 | 120.40906 | 33 ft | 4 kts | 335° |
| 2026-04-23 12:00 | 30.23718 | 120.40906 | 33 ft | 0 kts | 335° |
| 2026-04-23 12:02 | 30.23757 | 120.40884 | 32 ft | 9 kts | 334° |
| 2026-04-23 12:03 | 30.23805 | 120.40860 | 33 ft | 7 kts | 347° |
| 2026-04-23 12:03 | 30.23842 | 120.40880 | 34 ft | 7 kts | 55° |
| 2026-04-23 12:03 | 30.23861 | 120.40922 | 34 ft | 5 kts | 63° |
| 2026-04-23 12:03 | 30.23909 | 120.41030 | 34 ft | 43 kts | 63° |
| 2026-04-23 12:04 | 30.24159 | 120.41594 | 32 ft | 111 kts | 63° |
| 2026-04-23 12:04 | 30.24595 | 120.42579 | 31 ft | 162 kts | 63° |
| 2026-04-23 12:04 | 30.25115 | 120.43761 | 635 ft | 161 kts | 62° |
| 2026-04-23 12:04 | 30.25618 | 120.44905 | 1383 ft | 159 kts | 61° |
| 2026-04-23 12:05 | 30.26129 | 120.46053 | 2002 ft | 166 kts | 61° |
| 2026-04-23 12:05 | 30.26693 | 120.47316 | 2334 ft | 188 kts | 61° |
| 2026-04-23 12:05 | 30.27326 | 120.48731 | 2668 ft | 206 kts | 62° |
| 2026-04-23 12:05 | 30.27993 | 120.50229 | 3247 ft | 212 kts | 62° |
| 2026-04-23 12:06 | 30.28684 | 120.51742 | 3893 ft | 213 kts | 56° |
| 2026-04-23 12:06 | 30.29749 | 120.52918 | 4545 ft | 214 kts | 27° |
| 2026-04-23 12:06 | 30.32617 | 120.52816 | 5796 ft | 219 kts | 327° |
| 2026-04-23 12:07 | 30.33633 | 120.51513 | 6417 ft | 222 kts | 296° |
| 2026-04-23 12:07 | 30.34135 | 120.49816 | 7013 ft | 223 kts | 288° |
| 2026-04-23 12:07 | 30.34476 | 120.48062 | 7597 ft | 225 kts | 274° |
| 2026-04-23 12:07 | 30.34284 | 120.46230 | 8016 ft | 240 kts | 252° |
| 2026-04-23 12:08 | 30.33527 | 120.44394 | 8324 ft | 265 kts | 243° |
| 2026-04-23 12:08 | 30.32647 | 120.42445 | 8908 ft | 278 kts | 243° |
| 2026-04-23 12:08 | 30.31747 | 120.40444 | 9753 ft | 282 kts | 244° |
| 2026-04-23 12:08 | 30.30839 | 120.38420 | 10554 ft | 285 kts | 244° |
| 2026-04-23 12:09 | 30.29929 | 120.36382 | 11388 ft | 286 kts | 244° |
| 2026-04-23 12:09 | 30.29020 | 120.34337 | 12245 ft | 286 kts | 244° |
| 2026-04-23 12:09 | 30.28105 | 120.32272 | 12875 ft | 296 kts | 244° |
| 2026-04-23 12:09 | 30.27132 | 120.30067 | 13076 ft | 319 kts | 244° |
| 2026-04-23 12:10 | 30.26085 | 120.27697 | 13220 ft | 342 kts | 244° |
| 2026-04-23 12:10 | 30.24972 | 120.25186 | 13485 ft | 358 kts | 244° |
| 2026-04-23 12:10 | 30.23823 | 120.22603 | 14068 ft | 363 kts | 244° |
| 2026-04-23 12:10 | 30.22663 | 120.19999 | 14717 ft | 365 kts | 244° |
| 2026-04-23 12:11 | 30.21499 | 120.17381 | 15345 ft | 367 kts | 244° |
| 2026-04-23 12:11 | 30.20330 | 120.14751 | 15983 ft | 368 kts | 244° |
| 2026-04-23 12:11 | 30.19153 | 120.12112 | 16605 ft | 370 kts | 244° |
| 2026-04-23 12:11 | 30.17966 | 120.09465 | 17203 ft | 372 kts | 244° |
| 2026-04-23 12:12 | 30.16769 | 120.06801 | 17814 ft | 374 kts | 244° |
| 2026-04-23 12:12 | 30.15581 | 120.04159 | 18387 ft | 376 kts | 244° |
| 2026-04-23 12:12 | 30.14357 | 120.01436 | 18904 ft | 378 kts | 244° |
| 2026-04-23 12:12 | 30.13165 | 119.98779 | 19430 ft | 378 kts | 244° |
| 2026-04-23 12:13 | 30.11956 | 119.96084 | 19994 ft | 378 kts | 244° |
| 2026-04-23 12:13 | 30.10744 | 119.93392 | 20566 ft | 378 kts | 244° |
| 2026-04-23 12:13 | 30.09533 | 119.90701 | 21117 ft | 378 kts | 244° |
| 2026-04-23 12:13 | 30.08324 | 119.88009 | 21646 ft | 378 kts | 244° |
| 2026-04-23 12:14 | 30.07114 | 119.85319 | 22164 ft | 378 kts | 244° |
| 2026-04-23 12:14 | 30.05900 | 119.82627 | 22683 ft | 378 kts | 244° |
| 2026-04-23 12:14 | 30.04685 | 119.79935 | 23117 ft | 379 kts | 244° |
| 2026-04-23 12:14 | 30.03317 | 119.77330 | 23605 ft | 382 kts | 236° |
| 2026-04-23 12:15 | 30.01545 | 119.75031 | 24014 ft | 386 kts | 229° |
| 2026-04-23 12:15 | 29.99654 | 119.72829 | 24410 ft | 386 kts | 230° |
| 2026-04-23 12:15 | 29.97760 | 119.70622 | 24780 ft | 387 kts | 230° |
| 2026-04-23 12:15 | 29.95867 | 119.68409 | 25139 ft | 388 kts | 230° |
| 2026-04-23 12:16 | 29.93971 | 119.66187 | 25475 ft | 389 kts | 230° |
| 2026-04-23 12:16 | 29.92073 | 119.63961 | 25827 ft | 390 kts | 230° |
| 2026-04-23 12:16 | 29.90169 | 119.61732 | 26141 ft | 392 kts | 230° |
| 2026-04-23 12:16 | 29.88253 | 119.59489 | 26469 ft | 393 kts | 230° |
| 2026-04-23 12:17 | 29.86327 | 119.57244 | 26784 ft | 395 kts | 230° |
| 2026-04-23 12:17 | 29.84395 | 119.54997 | 27102 ft | 395 kts | 230° |
| 2026-04-23 12:17 | 29.82458 | 119.52744 | 27450 ft | 397 kts | 230° |
| 2026-04-23 12:17 | 29.80521 | 119.50493 | 27609 ft | 395 kts | 230° |
| 2026-04-23 12:18 | 29.78576 | 119.48233 | 27639 ft | 401 kts | 230° |
| 2026-04-23 12:18 | 29.76595 | 119.45927 | 27637 ft | 408 kts | 230° |
| 2026-04-23 12:18 | 29.74594 | 119.43599 | 27633 ft | 410 kts | 230° |
| 2026-04-23 12:18 | 29.72581 | 119.41267 | 27735 ft | 410 kts | 230° |
| 2026-04-23 12:19 | 29.70587 | 119.38970 | 27761 ft | 402 kts | 230° |
| 2026-04-23 12:19 | 29.68613 | 119.36684 | 27632 ft | 403 kts | 230° |
| 2026-04-23 12:19 | 29.66636 | 119.34388 | 27627 ft | 404 kts | 230° |
| 2026-04-23 12:19 | 29.64803 | 119.31965 | 27615 ft | 400 kts | 238° |
| 2026-04-23 12:20 | 29.63395 | 119.29221 | 27630 ft | 397 kts | 246° |
| 2026-04-23 12:20 | 29.62368 | 119.26323 | 27631 ft | 397 kts | 250° |
| 2026-04-23 12:20 | 29.61354 | 119.23378 | 27647 ft | 396 kts | 249° |
| 2026-04-23 12:20 | 29.60320 | 119.20404 | 27623 ft | 394 kts | 249° |
| 2026-04-23 12:21 | 29.59292 | 119.17468 | 27626 ft | 399 kts | 249° |
| 2026-04-23 12:21 | 29.58252 | 119.14509 | 27624 ft | 400 kts | 249° |
| 2026-04-23 12:21 | 29.57208 | 119.11540 | 27626 ft | 401 kts | 249° |
| 2026-04-23 12:21 | 29.56180 | 119.08614 | 27626 ft | 401 kts | 249° |
| 2026-04-23 12:22 | 29.55137 | 119.05640 | 27626 ft | 401 kts | 249° |
| 2026-04-23 12:22 | 29.54096 | 119.02669 | 27626 ft | 401 kts | 249° |
| 2026-04-23 12:22 | 29.53056 | 118.99696 | 27627 ft | 401 kts | 249° |
| 2026-04-23 12:22 | 29.52017 | 118.96723 | 27627 ft | 401 kts | 249° |
| 2026-04-23 12:23 | 29.50977 | 118.93753 | 27648 ft | 401 kts | 249° |
| 2026-04-23 12:23 | 29.50076 | 118.90732 | 27607 ft | 400 kts | 256° |
| 2026-04-23 12:23 | 29.49633 | 118.87582 | 27610 ft | 400 kts | 261° |
| 2026-04-23 12:23 | 29.49281 | 118.84412 | 27610 ft | 400 kts | 261° |
| 2026-04-23 12:24 | 29.48928 | 118.81242 | 27611 ft | 400 kts | 261° |
| 2026-04-23 12:24 | 29.48574 | 118.78071 | 27612 ft | 401 kts | 261° |
| 2026-04-23 12:24 | 29.48218 | 118.74899 | 27613 ft | 401 kts | 261° |
| 2026-04-23 12:24 | 29.47860 | 118.71729 | 27615 ft | 401 kts | 261° |
| 2026-04-23 12:25 | 29.47499 | 118.68558 | 27615 ft | 401 kts | 261° |
| 2026-04-23 12:25 | 29.47136 | 118.65388 | 27641 ft | 401 kts | 261° |
| 2026-04-23 12:25 | 29.46774 | 118.62222 | 27635 ft | 400 kts | 261° |
| 2026-04-23 12:25 | 29.46412 | 118.59055 | 27635 ft | 401 kts | 261° |
| 2026-04-23 12:26 | 29.46049 | 118.55886 | 27632 ft | 401 kts | 261° |
| 2026-04-23 12:26 | 29.45687 | 118.52718 | 27632 ft | 401 kts | 261° |
| 2026-04-23 12:26 | 29.45145 | 118.49589 | 27633 ft | 400 kts | 253° |
| 2026-04-23 12:26 | 29.44154 | 118.46605 | 27631 ft | 401 kts | 249° |
| 2026-04-23 12:27 | 29.43098 | 118.43646 | 27633 ft | 400 kts | 249° |
| 2026-04-23 12:27 | 29.42045 | 118.40692 | 27634 ft | 400 kts | 249° |
| 2026-04-23 12:27 | 29.40994 | 118.37735 | 27631 ft | 400 kts | 249° |
| 2026-04-23 12:27 | 29.39944 | 118.34775 | 27657 ft | 400 kts | 249° |
| 2026-04-23 12:28 | 29.38895 | 118.31823 | 27588 ft | 399 kts | 249° |
| 2026-04-23 12:28 | 29.37844 | 118.28875 | 27606 ft | 400 kts | 249° |
| 2026-04-23 12:28 | 29.36793 | 118.25926 | 27609 ft | 400 kts | 249° |
| 2026-04-23 12:28 | 29.35744 | 118.22973 | 27611 ft | 400 kts | 249° |
| 2026-04-23 12:29 | 29.34695 | 118.20023 | 27610 ft | 400 kts | 249° |
| 2026-04-23 12:29 | 29.33639 | 118.17067 | 27613 ft | 400 kts | 249° |
| 2026-04-23 12:29 | 29.32587 | 118.14122 | 27613 ft | 399 kts | 249° |
| 2026-04-23 12:29 | 29.31548 | 118.11216 | 27612 ft | 399 kts | 249° |
| 2026-04-23 12:30 | 29.30494 | 118.08274 | 27613 ft | 399 kts | 249° |
| 2026-04-23 12:30 | 29.29442 | 118.05336 | 27641 ft | 399 kts | 249° |
| 2026-04-23 12:30 | 29.28389 | 118.02391 | 27637 ft | 399 kts | 249° |
| 2026-04-23 12:30 | 29.27335 | 117.99446 | 27633 ft | 400 kts | 249° |
| 2026-04-23 12:31 | 29.26276 | 117.96500 | 27630 ft | 400 kts | 249° |
| 2026-04-23 12:31 | 29.25216 | 117.93553 | 27633 ft | 400 kts | 249° |
| 2026-04-23 12:31 | 29.24157 | 117.90607 | 27631 ft | 400 kts | 249° |
| 2026-04-23 12:31 | 29.23094 | 117.87666 | 27592 ft | 400 kts | 249° |
| 2026-04-23 12:32 | 29.22030 | 117.84728 | 27598 ft | 399 kts | 249° |
| 2026-04-23 12:32 | 29.20969 | 117.81793 | 27601 ft | 399 kts | 249° |
| 2026-04-23 12:32 | 29.19909 | 117.78853 | 27608 ft | 399 kts | 249° |
| 2026-04-23 12:32 | 29.18852 | 117.75917 | 27612 ft | 399 kts | 249° |
| 2026-04-23 12:33 | 29.17789 | 117.72979 | 27616 ft | 399 kts | 249° |
| 2026-04-23 12:33 | 29.16727 | 117.70044 | 27622 ft | 399 kts | 249° |
| 2026-04-23 12:33 | 29.15666 | 117.67108 | 27627 ft | 399 kts | 249° |
| 2026-04-23 12:33 | 29.14603 | 117.64172 | 27625 ft | 399 kts | 249° |
| 2026-04-23 12:34 | 29.13539 | 117.61242 | 27629 ft | 399 kts | 249° |
| 2026-04-23 12:34 | 29.12470 | 117.58309 | 27630 ft | 399 kts | 249° |
| 2026-04-23 12:34 | 29.11399 | 117.55379 | 27630 ft | 399 kts | 249° |
| 2026-04-23 12:34 | 29.10329 | 117.52448 | 27632 ft | 399 kts | 249° |
| 2026-04-23 12:35 | 29.09262 | 117.49514 | 27632 ft | 400 kts | 249° |
| 2026-04-23 12:35 | 29.08207 | 117.46579 | 27649 ft | 400 kts | 249° |
| 2026-04-23 12:35 | 29.07160 | 117.43636 | 27616 ft | 400 kts | 249° |
| 2026-04-23 12:35 | 29.06117 | 117.40696 | 27620 ft | 399 kts | 249° |
| 2026-04-23 12:36 | 29.05074 | 117.37753 | 27623 ft | 399 kts | 249° |
| 2026-04-23 12:36 | 29.04025 | 117.34813 | 27628 ft | 399 kts | 249° |
| 2026-04-23 12:36 | 29.02969 | 117.31873 | 27631 ft | 400 kts | 249° |
| 2026-04-23 12:36 | 29.01912 | 117.28938 | 27633 ft | 400 kts | 249° |
| 2026-04-23 12:37 | 29.00855 | 117.26002 | 27636 ft | 400 kts | 249° |
| 2026-04-23 12:37 | 28.99823 | 117.23103 | 27640 ft | 400 kts | 249° |
| 2026-04-23 12:37 | 28.98783 | 117.20159 | 27640 ft | 400 kts | 249° |
| 2026-04-23 12:37 | 28.97747 | 117.17213 | 27655 ft | 400 kts | 249° |
| 2026-04-23 12:38 | 28.96712 | 117.14268 | 27658 ft | 400 kts | 249° |
| 2026-04-23 12:38 | 28.95675 | 117.11324 | 27653 ft | 400 kts | 249° |
| 2026-04-23 12:38 | 28.94636 | 117.08382 | 27659 ft | 399 kts | 249° |
| 2026-04-23 12:38 | 28.93594 | 117.05446 | 27658 ft | 399 kts | 249° |
| 2026-04-23 12:39 | 28.92550 | 117.02508 | 27651 ft | 399 kts | 249° |
| 2026-04-23 12:39 | 28.91507 | 116.99572 | 27623 ft | 399 kts | 249° |
| 2026-04-23 12:39 | 28.90816 | 116.97627 | 27628 ft | 399 kts | 249° |
| 2026-04-23 12:39 | 28.89771 | 116.94688 | 27630 ft | 399 kts | 249° |
| 2026-04-23 12:40 | 28.88728 | 116.91753 | 27632 ft | 399 kts | 249° |
| 2026-04-23 12:40 | 28.87681 | 116.88819 | 27638 ft | 399 kts | 249° |
| 2026-04-23 12:40 | 28.86633 | 116.85883 | 27652 ft | 400 kts | 249° |
| 2026-04-23 12:40 | 28.85583 | 116.82948 | 27657 ft | 399 kts | 249° |
| 2026-04-23 12:41 | 28.84531 | 116.80013 | 27655 ft | 399 kts | 249° |
| 2026-04-23 12:41 | 28.83481 | 116.77083 | 27651 ft | 399 kts | 249° |
| 2026-04-23 12:41 | 28.82433 | 116.74151 | 27653 ft | 399 kts | 249° |
| 2026-04-23 12:41 | 28.81385 | 116.71219 | 27662 ft | 399 kts | 249° |
| 2026-04-23 12:42 | 28.80334 | 116.68288 | 27659 ft | 399 kts | 249° |
| 2026-04-23 12:42 | 28.79283 | 116.65359 | 27666 ft | 399 kts | 249° |
| 2026-04-23 12:42 | 28.78231 | 116.62431 | 27657 ft | 399 kts | 249° |
| 2026-04-23 12:42 | 28.77180 | 116.59505 | 27656 ft | 399 kts | 249° |
| 2026-04-23 12:43 | 28.76128 | 116.56576 | 27666 ft | 399 kts | 249° |
| 2026-04-23 12:43 | 28.75076 | 116.53649 | 27642 ft | 399 kts | 249° |
| 2026-04-23 12:43 | 28.74021 | 116.50722 | 27643 ft | 399 kts | 249° |
| 2026-04-23 12:43 | 28.72967 | 116.47799 | 27653 ft | 399 kts | 249° |
| 2026-04-23 12:44 | 28.71912 | 116.44873 | 27655 ft | 399 kts | 249° |
| 2026-04-23 12:44 | 28.70856 | 116.41950 | 27657 ft | 399 kts | 249° |
| 2026-04-23 12:44 | 28.69798 | 116.39029 | 27659 ft | 399 kts | 249° |
| 2026-04-23 12:44 | 28.68742 | 116.36108 | 27657 ft | 399 kts | 249° |
| 2026-04-23 12:45 | 28.67687 | 116.33188 | 27661 ft | 399 kts | 249° |
| 2026-04-23 12:45 | 28.66646 | 116.30305 | 27661 ft | 399 kts | 249° |
| 2026-04-23 12:45 | 28.65592 | 116.27384 | 27661 ft | 399 kts | 249° |
| 2026-04-23 12:45 | 28.64537 | 116.24462 | 27680 ft | 399 kts | 249° |
| 2026-04-23 12:46 | 28.63466 | 116.21502 | 27678 ft | 399 kts | 249° |
| 2026-04-23 12:46 | 28.62406 | 116.18585 | 27673 ft | 399 kts | 249° |
| 2026-04-23 12:46 | 28.61357 | 116.15704 | 27671 ft | 399 kts | 249° |
| 2026-04-23 12:46 | 28.60293 | 116.12786 | 27671 ft | 399 kts | 249° |
| 2026-04-23 12:47 | 28.59229 | 116.09870 | 27670 ft | 399 kts | 249° |
| 2026-04-23 12:47 | 28.58163 | 116.06956 | 27669 ft | 399 kts | 249° |
| 2026-04-23 12:47 | 28.57096 | 116.04038 | 27660 ft | 399 kts | 249° |
| 2026-04-23 12:47 | 28.56033 | 116.01123 | 27669 ft | 399 kts | 249° |
| 2026-04-23 12:48 | 28.54968 | 115.98204 | 27666 ft | 399 kts | 249° |
| 2026-04-23 12:48 | 28.53905 | 115.95291 | 27663 ft | 399 kts | 249° |
| 2026-04-23 12:48 | 28.53059 | 115.92291 | 27679 ft | 399 kts | 257° |
| 2026-04-23 12:48 | 28.52569 | 115.89189 | 27677 ft | 399 kts | 259° |
| 2026-04-23 12:49 | 28.52094 | 115.86079 | 27674 ft | 399 kts | 259° |
| 2026-04-23 12:49 | 28.51622 | 115.82964 | 27672 ft | 400 kts | 259° |
| 2026-04-23 12:49 | 28.51151 | 115.79851 | 27661 ft | 400 kts | 259° |
| 2026-04-23 12:49 | 28.50675 | 115.76738 | 27661 ft | 400 kts | 259° |
| 2026-04-23 12:50 | 28.50196 | 115.73621 | 27671 ft | 400 kts | 259° |
| 2026-04-23 12:50 | 28.49717 | 115.70509 | 27668 ft | 400 kts | 259° |
| 2026-04-23 12:50 | 28.49234 | 115.67392 | 27666 ft | 400 kts | 259° |
| 2026-04-23 12:50 | 28.48751 | 115.64279 | 27672 ft | 400 kts | 259° |
| 2026-04-23 12:51 | 28.48279 | 115.61162 | 27680 ft | 401 kts | 260° |
| 2026-04-23 12:51 | 28.47838 | 115.58032 | 27673 ft | 401 kts | 260° |
| 2026-04-23 12:51 | 28.47413 | 115.54898 | 27668 ft | 402 kts | 260° |
| 2026-04-23 12:51 | 28.46991 | 115.51760 | 27662 ft | 402 kts | 260° |
| 2026-04-23 12:52 | 28.46565 | 115.48623 | 27664 ft | 402 kts | 260° |
| 2026-04-23 12:52 | 28.46135 | 115.45482 | 27663 ft | 402 kts | 260° |
| 2026-04-23 12:52 | 28.45702 | 115.42341 | 27643 ft | 402 kts | 260° |
| 2026-04-23 12:52 | 28.45266 | 115.39204 | 27632 ft | 402 kts | 260° |
| 2026-04-23 12:53 | 28.44825 | 115.36074 | 27651 ft | 401 kts | 260° |
| 2026-04-23 12:53 | 28.44382 | 115.32946 | 27678 ft | 401 kts | 260° |
| 2026-04-23 12:53 | 28.43942 | 115.29821 | 27682 ft | 401 kts | 260° |
| 2026-04-23 12:53 | 28.43503 | 115.26694 | 27675 ft | 401 kts | 260° |
| 2026-04-23 12:54 | 28.43063 | 115.23570 | 27663 ft | 401 kts | 260° |
| 2026-04-23 12:54 | 28.42617 | 115.20436 | 27663 ft | 401 kts | 260° |
| 2026-04-23 12:54 | 28.42175 | 115.17347 | 27669 ft | 402 kts | 260° |
| 2026-04-23 12:54 | 28.41730 | 115.14214 | 27669 ft | 402 kts | 260° |
| 2026-04-23 12:55 | 28.41288 | 115.11082 | 27666 ft | 402 kts | 260° |
| 2026-04-23 12:55 | 28.40844 | 115.07949 | 27666 ft | 402 kts | 260° |
| 2026-04-23 12:55 | 28.40398 | 115.04815 | 27665 ft | 402 kts | 260° |
| 2026-04-23 12:55 | 28.39951 | 115.01682 | 27667 ft | 402 kts | 260° |
| 2026-04-23 12:56 | 28.39502 | 114.98549 | 27669 ft | 402 kts | 260° |
| 2026-04-23 12:56 | 28.39050 | 114.95407 | 27664 ft | 403 kts | 260° |
| 2026-04-23 12:56 | 28.38600 | 114.92265 | 27659 ft | 403 kts | 260° |
| 2026-04-23 12:56 | 28.38150 | 114.89122 | 27655 ft | 404 kts | 260° |
| 2026-04-23 12:57 | 28.37698 | 114.85977 | 27655 ft | 404 kts | 260° |
| 2026-04-23 12:57 | 28.37245 | 114.82828 | 27505 ft | 405 kts | 260° |
| 2026-04-23 12:57 | 28.36791 | 114.79690 | 26879 ft | 398 kts | 260° |
| 2026-04-23 12:57 | 28.36343 | 114.76607 | 26281 ft | 396 kts | 260° |
| 2026-04-23 12:58 | 28.35894 | 114.73516 | 25777 ft | 398 kts | 260° |
| 2026-04-23 12:58 | 28.35440 | 114.70399 | 25280 ft | 402 kts | 260° |
| 2026-04-23 12:58 | 28.34982 | 114.67254 | 24796 ft | 406 kts | 260° |
| 2026-04-23 12:58 | 28.34517 | 114.64072 | 24316 ft | 411 kts | 260° |
| 2026-04-23 12:59 | 28.34049 | 114.60856 | 23827 ft | 414 kts | 260° |
| 2026-04-23 12:59 | 28.33585 | 114.57665 | 23307 ft | 415 kts | 260° |
| 2026-04-23 12:59 | 28.33113 | 114.54434 | 22761 ft | 415 kts | 260° |
| 2026-04-23 12:59 | 28.32637 | 114.51207 | 22204 ft | 414 kts | 261° |
| 2026-04-23 13:00 | 28.32161 | 114.47990 | 21677 ft | 413 kts | 261° |
| 2026-04-23 13:00 | 28.31686 | 114.44776 | 21165 ft | 412 kts | 261° |
| 2026-04-23 13:00 | 28.31211 | 114.41570 | 20677 ft | 412 kts | 261° |
| 2026-04-23 13:00 | 28.30748 | 114.38371 | 20195 ft | 411 kts | 263° |
| 2026-04-23 13:01 | 28.30640 | 114.35139 | 19716 ft | 410 kts | 272° |
| 2026-04-23 13:01 | 28.30752 | 114.31902 | 19246 ft | 410 kts | 272° |
| 2026-04-23 13:01 | 28.30857 | 114.28668 | 18780 ft | 410 kts | 272° |
| 2026-04-23 13:01 | 28.30955 | 114.25436 | 18326 ft | 409 kts | 272° |
| 2026-04-23 13:02 | 28.31051 | 114.22215 | 17796 ft | 408 kts | 272° |
| 2026-04-23 13:02 | 28.31149 | 114.19006 | 17397 ft | 407 kts | 272° |
| 2026-04-23 13:02 | 28.31246 | 114.15806 | 17015 ft | 405 kts | 273° |
| 2026-04-23 13:02 | 28.31345 | 114.12616 | 16640 ft | 403 kts | 273° |
| 2026-04-23 13:03 | 28.31443 | 114.09441 | 16268 ft | 402 kts | 273° |
| 2026-04-23 13:03 | 28.31395 | 114.06277 | 15897 ft | 401 kts | 266° |
| 2026-04-23 13:03 | 28.30883 | 114.03157 | 15532 ft | 403 kts | 259° |
| 2026-04-23 13:03 | 28.30222 | 114.00078 | 15178 ft | 401 kts | 259° |
| 2026-04-23 13:04 | 28.29563 | 113.97003 | 14820 ft | 400 kts | 259° |
| 2026-04-23 13:04 | 28.28908 | 113.93937 | 14473 ft | 399 kts | 259° |
| 2026-04-23 13:04 | 28.28257 | 113.90884 | 14123 ft | 398 kts | 259° |
| 2026-04-23 13:04 | 28.27607 | 113.87838 | 13771 ft | 397 kts | 259° |
| 2026-04-23 13:05 | 28.26955 | 113.84795 | 13378 ft | 397 kts | 259° |
| 2026-04-23 13:05 | 28.26302 | 113.81756 | 12990 ft | 396 kts | 259° |
| 2026-04-23 13:05 | 28.25543 | 113.78806 | 12613 ft | 394 kts | 251° |
| 2026-04-23 13:05 | 28.24189 | 113.76105 | 12275 ft | 386 kts | 236° |
| 2026-04-23 13:06 | 28.20156 | 113.72405 | 11680 ft | 373 kts | 208° |
| 2026-04-23 13:06 | 28.19349 | 113.72022 | 11577 ft | 370 kts | 203° |
| 2026-04-23 13:07 | 28.12550 | 113.71024 | 10789 ft | 350 kts | 185° |
| 2026-04-23 13:07 | 28.10146 | 113.70838 | 10502 ft | 343 kts | 186° |
| 2026-04-23 13:07 | 28.07799 | 113.70569 | 10221 ft | 335 kts | 193° |
| 2026-04-23 13:07 | 28.05632 | 113.69743 | 9936 ft | 325 kts | 209° |
| 2026-04-23 13:08 | 28.03784 | 113.68346 | 9632 ft | 315 kts | 224° |
| 2026-04-23 13:08 | 28.02345 | 113.66534 | 9324 ft | 306 kts | 238° |
| 2026-04-23 13:08 | 28.01362 | 113.64446 | 9023 ft | 297 kts | 252° |
| 2026-04-23 13:08 | 28.00856 | 113.62219 | 8708 ft | 288 kts | 265° |
| 2026-04-23 13:09 | 28.00727 | 113.59980 | 8410 ft | 283 kts | 270° |
| 2026-04-23 13:09 | 28.00626 | 113.57762 | 8110 ft | 281 kts | 269° |
| 2026-04-23 13:09 | 28.00524 | 113.55564 | 7815 ft | 279 kts | 269° |
| 2026-04-23 13:09 | 28.00421 | 113.53370 | 7521 ft | 279 kts | 269° |
| 2026-04-23 13:10 | 28.00158 | 113.51196 | 7230 ft | 280 kts | 257° |
| 2026-04-23 13:10 | 27.99495 | 113.49130 | 6942 ft | 278 kts | 249° |
| 2026-04-23 13:10 | 27.98770 | 113.47129 | 6648 ft | 272 kts | 249° |
| 2026-04-23 13:10 | 27.98063 | 113.45161 | 6362 ft | 268 kts | 249° |
| 2026-04-23 13:11 | 27.97371 | 113.43226 | 6055 ft | 263 kts | 250° |
| 2026-04-23 13:11 | 27.96691 | 113.41324 | 5743 ft | 259 kts | 250° |
| 2026-04-23 13:11 | 27.96021 | 113.39450 | 5429 ft | 255 kts | 250° |
| 2026-04-23 13:11 | 27.95362 | 113.37604 | 5147 ft | 251 kts | 250° |
| 2026-04-23 13:12 | 27.94907 | 113.35733 | 4843 ft | 245 kts | 265° |
| 2026-04-23 13:12 | 27.94797 | 113.33830 | 4538 ft | 241 kts | 269° |
| 2026-04-23 13:12 | 27.94713 | 113.31960 | 4300 ft | 235 kts | 269° |
| 2026-04-23 13:12 | 27.94627 | 113.30137 | 4097 ft | 230 kts | 269° |
| 2026-04-23 13:13 | 27.94554 | 113.28351 | 3892 ft | 224 kts | 274° |
| 2026-04-23 13:13 | 27.94850 | 113.26662 | 3730 ft | 216 kts | 295° |
| 2026-04-23 13:13 | 27.95609 | 113.25255 | 3603 ft | 206 kts | 314° |
| 2026-04-23 13:13 | 27.96688 | 113.24251 | 3476 ft | 198 kts | 332° |
| 2026-04-23 13:14 | 27.97939 | 113.23712 | 3380 ft | 188 kts | 349° |
| 2026-04-23 13:14 | 27.99224 | 113.23579 | 3261 ft | 184 kts | 357° |
| 2026-04-23 13:14 | 28.00481 | 113.23502 | 3133 ft | 183 kts | 357° |
| 2026-04-23 13:14 | 28.01751 | 113.23424 | 3002 ft | 183 kts | 357° |
| 2026-04-23 13:15 | 28.03018 | 113.23345 | 2919 ft | 183 kts | 357° |
| 2026-04-23 13:15 | 28.04289 | 113.23267 | 2744 ft | 183 kts | 357° |
| 2026-04-23 13:15 | 28.05143 | 113.23214 | 2587 ft | 180 kts | 357° |
| 2026-04-23 13:15 | 28.06773 | 113.23114 | 2298 ft | 175 kts | 358° |
| 2026-04-23 13:16 | 28.07960 | 113.23040 | 2064 ft | 166 kts | 358° |
| 2026-04-23 13:16 | 28.08710 | 113.22994 | 1923 ft | 160 kts | 358° |
| 2026-04-23 13:16 | 28.10103 | 113.22908 | 1664 ft | 143 kts | 358° |
| 2026-04-23 13:16 | 28.10754 | 113.22868 | 1527 ft | 140 kts | 358° |
| 2026-04-23 13:17 | 28.11718 | 113.22808 | 1345 ft | 138 kts | 358° |
| 2026-04-23 13:17 | 28.12675 | 113.22749 | 1175 ft | 137 kts | 358° |
| 2026-04-23 13:17 | 28.13623 | 113.22691 | 994 ft | 136 kts | 358° |
| 2026-04-23 13:17 | 28.14570 | 113.22633 | 812 ft | 136 kts | 357° |
| 2026-04-23 13:18 | 28.15516 | 113.22567 | 620 ft | 136 kts | 357° |
| 2026-04-23 13:18 | 28.16463 | 113.22517 | 432 ft | 136 kts | 357° |
| 2026-04-23 13:18 | 28.17408 | 113.22455 | 267 ft | 136 kts | 357° |
| 2026-04-23 13:18 | 28.18283 | 113.22404 | 222 ft | 104 kts | 356° |
| 2026-04-23 13:19 | 28.18836 | 113.22371 | 219 ft | 55 kts | 357° |
| 2026-04-23 13:19 | 28.19138 | 113.22330 | 217 ft | 37 kts | 336° |
| 2026-04-23 13:19 | 28.19329 | 113.22207 | 223 ft | 25 kts | 329° |
| 2026-04-23 13:19 | 28.19456 | 113.22141 | 214 ft | 20 kts | 352° |
| 2026-04-23 13:20 | 28.19592 | 113.22131 | 214 ft | 18 kts | 356° |
| 2026-04-23 13:20 | 28.19716 | 113.22123 | 217 ft | 18 kts | 357° |
| 2026-04-23 13:20 | 28.19835 | 113.22116 | 215 ft | 17 kts | 358° |
| 2026-04-23 13:20 | 28.19961 | 113.22108 | 215 ft | 19 kts | 356° |
| 2026-04-23 13:21 | 28.20043 | 113.22103 | 217 ft | 6 kts | 356° |
| 2026-04-23 13:21 | 28.20069 | 113.22091 | 217 ft | 3 kts | 317° |
| 2026-04-23 13:21 | 28.20075 | 113.22044 | 215 ft | 5 kts | 266° |
| 2026-04-23 13:21 | 28.20075 | 113.22019 | 218 ft | 3 kts | 268° |
| 2026-04-23 13:22 | 28.20070 | 113.21916 | 220 ft | 21 kts | 267° |
| 2026-04-23 13:22 | 28.20060 | 113.21757 | 218 ft | 15 kts | 256° |
| 2026-04-23 13:22 | 28.19971 | 113.21724 | 219 ft | 14 kts | 175° |
| 2026-04-23 13:22 | 28.19873 | 113.21731 | 218 ft | 15 kts | 178° |
| 2026-04-23 13:23 | 28.19719 | 113.21740 | 214 ft | 27 kts | 177° |
| 2026-04-23 13:23 | 28.19525 | 113.21751 | 219 ft | 29 kts | 177° |
| 2026-04-23 13:23 | 28.19322 | 113.21764 | 220 ft | 29 kts | 176° |
| 2026-04-23 13:23 | 28.19125 | 113.21776 | 215 ft | 25 kts | 176° |
| 2026-04-23 13:24 | 28.18977 | 113.21784 | 217 ft | 17 kts | 178° |
| 2026-04-23 13:24 | 28.18886 | 113.21738 | 220 ft | 15 kts | 257° |
| 2026-04-23 13:24 | 28.18879 | 113.21624 | 214 ft | 14 kts | 265° |
| 2026-04-23 13:24 | 28.18874 | 113.21534 | 216 ft | 9 kts | 263° |
| 2026-04-23 13:25 | 28.18835 | 113.21508 | 218 ft | 4 kts | 178° |
| 2026-04-23 13:25 | 28.18817 | 113.21509 | 214 ft | 1 kts | 178° |
| 2026-04-23 13:25 | 28.18816 | 113.21509 | 214 ft | 0 kts | 178° |